Time;durP1;ratioP1;P1;durP2;ratioP2;P2;SDS_P1;SDS_P2;PMS_P1;PMS_P2;Temp;Humidity;BMP_temperature;BMP_pressure;BME280_temperature;BME280_humidity;BME280_pressure;Samples;Min_cycle;Max_cycle;Signal;HPM_P1;HPM_P2
2023/09/10 00:00:10;;;;;;;2.90;0.90;;;;;;;19.24;31.83;101220.17;108097;1283;21988;-59
2023/09/10 00:02:36;;;;;;;4.60;1.20;;;;;;;19.20;32.02;101218.91;108092;1280;21987;-70
2023/09/10 00:05:02;;;;;;;3.40;1.10;;;;;;;19.17;32.09;101219.19;108075;1286;21998;-71
2023/09/10 00:07:27;;;;;;;4.80;1.20;;;;;;;19.14;32.23;101222.48;108058;1287;21990;-71
2023/09/10 00:09:54;;;;;;;3.40;1.20;;;;;;;19.07;32.32;101222.55;108072;1288;22003;-70
2023/09/10 00:12:20;;;;;;;2.80;0.90;;;;;;;19.03;32.27;101224.29;108046;1286;21993;-71
2023/09/10 00:14:45;;;;;;;6.80;1.10;;;;;;;19.02;32.36;101216.67;108028;1283;21985;-59
2023/09/10 00:17:12;;;;;;;2.70;0.80;;;;;;;19.01;32.44;101218.13;108120;1288;21994;-70
2023/09/10 00:19:37;;;;;;;4.30;1.20;;;;;;;18.98;32.47;101220.17;106619;1288;1006014;-58
2023/09/10 00:22:03;;;;;;;3.40;1.10;;;;;;;18.96;32.59;101220.42;108052;1284;22005;-71
2023/09/10 00:24:29;;;;;;;3.00;1.00;;;;;;;18.94;32.63;101223.50;108060;1288;21990;-71
2023/09/10 00:26:54;;;;;;;2.80;0.90;;;;;;;18.91;32.72;101226.63;108069;1288;22001;-60
2023/09/10 00:29:20;;;;;;;1.70;0.90;;;;;;;18.89;32.86;101227.06;108042;1288;21990;-71
2023/09/10 00:31:45;;;;;;;7.40;1.00;;;;;;;18.87;32.80;101230.14;108070;1283;21991;-71
2023/09/10 00:34:12;;;;;;;8.00;1.80;;;;;;;18.84;32.85;101230.39;108061;1283;22024;-59
2023/09/10 00:36:38;;;;;;;3.20;0.70;;;;;;;18.81;32.90;101231.56;108050;1288;21999;-71
2023/09/10 00:39:04;;;;;;;2.60;0.90;;;;;;;18.77;32.92;101231.35;108031;1283;21997;-58
2023/09/10 00:41:29;;;;;;;8.10;1.40;;;;;;;18.74;32.96;101229.14;107997;1280;22001;-71
2023/09/10 00:43:55;;;;;;;7.90;1.40;;;;;;;18.69;33.00;101236.41;108076;1288;22460;-59
2023/09/10 00:46:20;;;;;;;5.50;1.10;;;;;;;18.60;32.88;101237.92;108037;1283;21991;-72
2023/09/10 00:48:46;;;;;;;3.10;0.90;;;;;;;18.52;33.05;101240.52;108043;1288;22115;-59
2023/09/10 00:51:12;;;;;;;4.80;0.90;;;;;;;18.41;33.02;101244.77;105834;1288;1003293;-71
2023/09/10 00:53:37;;;;;;;3.00;1.00;;;;;;;18.32;33.15;101246.84;108087;1283;21990;-59
2023/09/10 00:56:03;;;;;;;5.20;1.00;;;;;;;18.22;33.15;101248.88;108041;1280;21981;-59
2023/09/10 00:58:29;;;;;;;4.70;1.00;;;;;;;18.15;33.16;101249.98;108054;1288;23766;-72
2023/09/10 01:00:55;;;;;;;2.20;1.00;;;;;;;18.06;33.30;101251.85;108031;1283;22026;-72
2023/09/10 01:03:20;;;;;;;6.50;1.40;;;;;;;17.97;33.35;101246.40;108046;1287;22018;-72
2023/09/10 01:05:46;;;;;;;5.10;1.40;;;;;;;17.90;33.50;101246.06;107797;1288;22158;-72
2023/09/10 01:08:12;;;;;;;1.60;0.80;;;;;;;17.83;33.59;101250.02;108045;1288;21998;-73
2023/09/10 01:11:00;;;;;;;4.80;1.20;;;;;;;17.75;33.64;101244.38;108051;1288;21993;-60
2023/09/10 01:13:52;;;;;;;3.30;0.90;;;;;;;17.66;33.73;101247.99;107992;1288;22032;-60
2023/09/10 01:16:20;;;;;;;3.70;0.80;;;;;;;17.59;33.91;101248.73;108044;1288;21995;-73
2023/09/10 01:18:49;;;;;;;3.70;1.10;;;;;;;17.55;34.01;101250.80;108070;1286;22457;-60
2023/09/10 01:21:49;;;;;;;3.50;0.90;;;;;;;17.51;34.02;101254.25;108027;1287;22002;-59
2023/09/10 01:24:34;;;;;;;5.90;0.80;;;;;;;17.46;34.02;101252.98;108041;1288;21990;-73
2023/09/10 01:26:59;;;;;;;3.00;1.10;;;;;;;17.42;33.96;101251.15;108033;1283;23719;-73
2023/09/10 01:29:25;;;;;;;3.20;0.90;;;;;;;17.36;34.17;101247.21;108025;1288;22009;-60
2023/09/10 01:31:53;;;;;;;5.60;0.90;;;;;;;17.29;34.04;101247.21;108045;1286;21998;-60
2023/09/10 01:34:20;;;;;;;5.50;1.20;;;;;;;17.25;34.11;101246.62;107956;1277;22030;-74
2023/09/10 01:36:49;;;;;;;4.40;1.20;;;;;;;17.19;34.31;101247.48;107881;1288;22000;-75
2023/09/10 01:39:20;;;;;;;4.30;1.10;;;;;;;17.08;34.17;101247.76;107853;1287;22183;-74
2023/09/10 01:41:48;;;;;;;3.80;1.10;;;;;;;17.00;34.24;101245.48;108063;1288;22002;-60
2023/09/10 01:44:14;;;;;;;2.50;0.80;;;;;;;16.93;34.37;101249.55;108059;1286;21992;-75
2023/09/10 01:46:40;;;;;;;3.90;0.90;;;;;;;16.86;34.36;101248.29;107898;1288;22793;-64
2023/09/10 01:49:05;;;;;;;4.90;1.00;;;;;;;16.78;34.39;101253.44;108080;1282;22046;-59
2023/09/10 01:51:31;;;;;;;3.20;1.10;;;;;;;16.71;34.52;101254.67;107884;1288;21987;-71
2023/09/10 01:53:57;;;;;;;4.20;1.10;;;;;;;16.67;34.75;101255.30;108305;1286;21975;-74
2023/09/10 01:56:23;;;;;;;5.10;1.60;;;;;;;16.62;34.70;101259.13;108060;1288;21990;-60
2023/09/10 01:58:48;;;;;;;3.30;1.10;;;;;;;16.57;34.74;101262.08;108017;1288;21988;-74
2023/09/10 02:01:14;;;;;;;5.10;1.20;;;;;;;16.50;34.83;101262.27;108073;1284;22024;-74
2023/09/10 02:03:39;;;;;;;4.40;1.30;;;;;;;16.43;34.95;101263.27;108083;1283;22017;-75
2023/09/10 02:06:05;;;;;;;6.20;1.10;;;;;;;16.40;35.06;101267.80;108025;1280;21990;-59
2023/09/10 02:08:31;;;;;;;2.30;1.00;;;;;;;16.35;35.10;101271.77;108044;1283;21990;-59
2023/09/10 02:10:56;;;;;;;7.00;1.20;;;;;;;16.31;35.16;101268.67;108014;1277;21992;-61
2023/09/10 02:13:22;;;;;;;3.40;1.60;;;;;;;16.27;35.25;101265.40;108142;1288;21992;-59
2023/09/10 02:15:48;;;;;;;3.20;1.00;;;;;;;16.24;35.40;101266.54;108068;1288;21989;-59
2023/09/10 02:18:13;;;;;;;2.20;1.10;;;;;;;16.21;35.43;101270.85;108091;1284;22022;-76
2023/09/10 02:20:39;;;;;;;3.20;0.90;;;;;;;16.20;35.54;101275.30;108018;1280;22034;-76
2023/09/10 02:23:04;;;;;;;3.00;1.10;;;;;;;16.18;35.58;101273.56;107793;1286;21988;-59
2023/09/10 02:25:32;;;;;;;6.00;1.20;;;;;;;16.17;35.52;101271.46;108019;1288;21994;-60
2023/09/10 02:28:00;;;;;;;4.80;1.30;;;;;;;16.14;35.63;101271.70;108108;1281;22000;-76
2023/09/10 02:30:25;;;;;;;2.50;1.20;;;;;;;16.11;35.62;101273.73;108181;1283;24357;-76
2023/09/10 02:32:51;;;;;;;2.10;1.00;;;;;;;16.07;35.75;101273.63;108019;1287;22002;-78
2023/09/10 02:35:16;;;;;;;4.90;1.30;;;;;;;16.05;35.75;101275.80;107998;1288;23059;-77
2023/09/10 02:37:42;;;;;;;6.20;1.30;;;;;;;16.04;35.80;101275.46;108037;1288;23644;-57
2023/09/10 02:40:09;;;;;;;3.20;1.10;;;;;;;16.02;35.99;101276.38;107983;1283;21994;-58
2023/09/10 02:42:34;;;;;;;4.10;0.90;;;;;;;15.99;35.99;101277.50;108042;1288;21988;-76
2023/09/10 02:45:02;;;;;;;2.00;0.80;;;;;;;15.95;36.00;101274.74;108023;1288;21992;-76
2023/09/10 02:47:28;;;;;;;2.00;0.90;;;;;;;15.92;36.05;101272.68;107916;1288;22029;-75
2023/09/10 02:49:54;;;;;;;4.70;1.30;;;;;;;15.88;35.91;101273.66;107984;1286;23616;-75
2023/09/10 02:52:24;;;;;;;7.30;1.50;;;;;;;15.86;36.06;101273.50;107946;1287;21995;-75
2023/09/10 02:54:51;;;;;;;9.50;1.80;;;;;;;15.83;36.02;101276.02;107985;1286;24322;-58
2023/09/10 02:57:16;;;;;;;6.70;1.70;;;;;;;15.79;36.08;101274.15;105729;1288;1002993;-58
2023/09/10 02:59:42;;;;;;;30.20;3.10;;;;;;;15.75;36.02;101272.45;108014;1288;22002;-57
2023/09/10 03:02:07;;;;;;;18.00;2.50;;;;;;;15.72;36.12;101275.70;107979;1281;21983;-57
2023/09/10 03:04:33;;;;;;;14.40;1.60;;;;;;;15.67;36.20;101279.50;107983;1287;21997;-57
2023/09/10 03:07:01;;;;;;;8.60;1.90;;;;;;;15.65;36.21;101284.34;108028;1287;21956;-58
2023/09/10 03:09:27;;;;;;;8.40;1.90;;;;;;;15.62;36.34;101284.39;107999;1281;21992;-77
2023/09/10 03:11:52;;;;;;;7.10;1.80;;;;;;;15.60;36.32;101280.54;108021;1288;23647;-77
2023/09/10 03:14:18;;;;;;;7.90;1.90;;;;;;;15.59;36.32;101284.45;107994;1288;21992;-58
2023/09/10 03:16:43;;;;;;;4.10;1.20;;;;;;;15.58;36.34;101286.75;108007;1284;22458;-75
2023/09/10 03:19:09;;;;;;;14.30;1.50;;;;;;;15.57;36.38;101291.91;107786;1288;23624;-75
2023/09/10 03:21:35;;;;;;;12.00;1.20;;;;;;;15.55;36.37;101293.00;108051;1283;21990;-58
2023/09/10 03:24:01;;;;;;;18.00;1.70;;;;;;;15.53;36.49;101294.80;108069;1288;21977;-59
2023/09/10 03:26:27;;;;;;;8.00;1.40;;;;;;;15.52;36.52;101296.61;108017;1283;23644;-60
2023/09/10 03:28:52;;;;;;;7.60;1.60;;;;;;;15.50;36.58;101292.38;108011;1288;21990;-76
2023/09/10 03:31:18;;;;;;;7.60;1.10;;;;;;;15.49;36.58;101294.36;108087;1286;21990;-58
2023/09/10 03:33:43;;;;;;;5.20;1.80;;;;;;;15.45;36.64;101296.20;108010;1288;22003;-58
2023/09/10 03:36:09;;;;;;;18.50;3.00;;;;;;;15.41;36.67;101301.20;108017;1285;21991;-58
2023/09/10 03:38:35;;;;;;;17.70;2.20;;;;;;;15.39;36.79;101301.97;107998;1288;22000;-59
2023/09/10 03:41:01;;;;;;;4.40;1.80;;;;;;;15.39;36.69;101304.44;108014;1286;22005;-58
2023/09/10 03:43:26;;;;;;;6.90;1.40;;;;;;;15.40;36.71;101302.85;108011;1280;22013;-74
2023/09/10 03:45:52;;;;;;;5.70;1.20;;;;;;;15.40;36.79;101303.37;108018;1284;21990;-72
2023/09/10 03:48:17;;;;;;;8.30;1.20;;;;;;;15.41;36.87;101303.88;107973;1288;21993;-73
2023/09/10 03:50:43;;;;;;;11.90;1.50;;;;;;;15.42;36.89;101304.92;108069;1288;23656;-74
2023/09/10 03:53:09;;;;;;;128.40;8.70;;;;;;;15.43;36.94;101307.03;108006;1283;22000;-77
2023/09/10 03:55:34;;;;;;;15.40;1.90;;;;;;;15.43;37.02;101305.61;107952;1288;22029;-58
2023/09/10 03:58:00;;;;;;;14.40;1.90;;;;;;;15.50;37.01;101307.95;107986;1288;22000;-59
2023/09/10 04:00:25;;;;;;;19.80;2.10;;;;;;;15.56;37.00;101310.50;108005;1283;21999;-83
2023/09/10 04:02:51;;;;;;;15.00;1.70;;;;;;;15.62;36.96;101310.04;108006;1286;21989;-58
2023/09/10 04:05:17;;;;;;;8.30;1.30;;;;;;;15.70;36.97;101310.60;108014;1280;22000;-58
2023/09/10 04:07:42;;;;;;;10.30;1.60;;;;;;;15.79;36.95;101307.59;107796;1288;22001;-58
2023/09/10 04:10:08;;;;;;;9.80;1.60;;;;;;;15.88;36.89;101306.04;108001;1287;22002;-70
2023/09/10 04:12:34;;;;;;;6.70;1.30;;;;;;;15.98;36.85;101302.83;108072;1286;21992;-59
2023/09/10 04:15:00;;;;;;;5.10;1.20;;;;;;;16.11;36.91;101304.86;108064;1288;21992;-59
2023/09/10 04:17:28;;;;;;;8.50;1.60;;;;;;;16.23;36.89;101303.92;108024;1288;21990;-59
2023/09/10 04:19:54;;;;;;;25.90;2.70;;;;;;;16.35;36.85;101301.89;108049;1283;21991;-58
2023/09/10 04:22:20;;;;;;;7.30;1.50;;;;;;;16.63;37.06;101301.09;106579;1286;1003124;-58
2023/09/10 04:24:46;;;;;;;10.10;1.80;;;;;;;16.84;36.77;101302.55;108132;1288;21995;-58
2023/09/10 04:27:11;;;;;;;14.20;1.60;;;;;;;16.92;36.49;101303.44;107996;1286;22046;-68
2023/09/10 04:29:37;;;;;;;26.00;2.30;;;;;;;16.98;36.52;101305.45;107950;1288;21990;-68
2023/09/10 04:32:03;;;;;;;14.60;1.50;;;;;;;17.06;36.47;101306.31;108024;1288;21998;-59
2023/09/10 04:34:29;;;;;;;5.60;1.30;;;;;;;17.15;36.49;101306.29;108030;1286;21993;-59
2023/09/10 04:36:54;;;;;;;9.40;1.70;;;;;;;17.23;36.52;101305.38;108026;1286;21994;-58
2023/09/10 04:39:20;;;;;;;9.90;1.40;;;;;;;17.31;36.57;101305.69;108030;1288;21995;-58
2023/09/10 04:41:45;;;;;;;12.90;1.50;;;;;;;17.39;36.66;101307.81;108010;1283;21990;-68
2023/09/10 04:44:11;;;;;;;12.30;2.00;;;;;;;17.47;36.54;101306.70;108034;1283;23626;-58
2023/09/10 04:46:36;;;;;;;9.10;1.40;;;;;;;17.55;36.39;101303.48;108008;1288;21992;-58
2023/09/10 04:49:02;;;;;;;13.40;1.80;;;;;;;17.63;36.45;101305.94;108024;1287;22002;-72
2023/09/10 04:51:28;;;;;;;11.60;1.60;;;;;;;17.71;36.32;101305.89;108022;1288;22001;-58
2023/09/10 04:53:54;;;;;;;3.90;1.60;;;;;;;17.80;36.44;101306.73;107960;1288;22002;-58
2023/09/10 04:56:20;;;;;;;6.90;1.60;;;;;;;17.89;36.65;101305.60;108006;1279;22025;-70
2023/09/10 04:58:45;;;;;;;9.20;1.70;;;;;;;18.00;36.59;101303.17;108051;1283;22003;-70
2023/09/10 05:01:11;;;;;;;6.70;1.70;;;;;;;18.13;36.57;101303.34;108022;1283;21996;-58
2023/09/10 05:03:36;;;;;;;4.40;1.90;;;;;;;18.25;36.34;101300.15;108007;1288;21990;-71
2023/09/10 05:06:05;;;;;;;5.80;1.70;;;;;;;18.38;36.38;101304.55;108002;1283;21987;-70
2023/09/10 05:08:31;;;;;;;10.90;2.10;;;;;;;18.52;36.34;101307.15;108003;1284;21998;-68
2023/09/10 05:10:56;;;;;;;9.90;2.00;;;;;;;18.69;36.28;101305.92;108000;1288;22061;-59
2023/09/10 05:13:22;;;;;;;7.30;2.30;;;;;;;18.91;36.29;101305.75;107987;1288;22004;-59
2023/09/10 05:15:49;;;;;;;4.60;1.90;;;;;;;19.10;36.04;101302.16;107997;1288;21992;-74
2023/09/10 05:18:15;;;;;;;6.40;2.20;;;;;;;19.25;35.90;101303.79;107995;1287;23718;-59
2023/09/10 05:20:41;;;;;;;9.50;1.90;;;;;;;19.39;35.87;101304.03;108147;1288;21997;-74
2023/09/10 05:23:07;;;;;;;7.60;2.40;;;;;;;19.55;35.85;101304.73;108047;1288;22027;-72
2023/09/10 05:25:36;;;;;;;5.70;2.30;;;;;;;19.70;35.64;101302.04;108004;1281;21993;-72
2023/09/10 05:28:03;;;;;;;13.80;3.90;;;;;;;19.83;35.62;101301.77;108009;1285;22003;-68
2023/09/10 05:30:29;;;;;;;9.10;2.20;;;;;;;19.97;35.61;101301.83;108014;1288;23647;-71
2023/09/10 05:32:56;;;;;;;7.60;2.50;;;;;;;20.14;35.53;101302.61;108023;1288;23614;-58
2023/09/10 05:35:22;;;;;;;9.00;2.90;;;;;;;20.31;35.46;101303.39;108022;1288;21990;-72
2023/09/10 05:37:47;;;;;;;11.50;3.40;;;;;;;20.49;35.42;101303.41;107995;1288;23708;-71
2023/09/10 05:40:13;;;;;;;9.60;3.60;;;;;;;20.68;35.29;101304.47;107994;1285;21989;-58
2023/09/10 05:42:38;;;;;;;9.40;3.30;;;;;;;20.85;35.43;101308.08;107822;1288;21978;-58
2023/09/10 05:45:05;;;;;;;7.50;4.10;;;;;;;21.06;35.32;101312.80;108019;1288;21998;-69
2023/09/10 05:47:32;;;;;;;10.70;4.30;;;;;;;21.27;35.27;101316.38;108038;1286;21995;-70
2023/09/10 05:49:59;;;;;;;6.70;3.40;;;;;;;21.45;35.10;101318.45;107975;1288;22064;-57
2023/09/10 05:52:25;;;;;;;15.00;5.20;;;;;;;21.64;35.07;101318.73;108030;1288;21992;-69
2023/09/10 05:54:50;;;;;;;11.90;4.80;;;;;;;21.86;35.03;101320.84;107994;1288;21998;-70
2023/09/10 05:57:16;;;;;;;9.80;4.20;;;;;;;22.06;34.85;101321.86;108035;1284;22003;-58
2023/09/10 05:59:41;;;;;;;7.30;4.20;;;;;;;22.26;34.68;101320.60;108020;1288;22758;-69
2023/09/10 06:02:07;;;;;;;9.00;4.10;;;;;;;22.48;34.66;101322.48;108013;1284;21984;-69
2023/09/10 06:04:33;;;;;;;8.00;4.60;;;;;;;22.70;34.51;101327.69;108070;1284;23561;-57
2023/09/10 06:07:03;;;;;;;10.80;5.30;;;;;;;22.94;34.40;101324.94;108033;1288;21996;-71
2023/09/10 06:09:30;;;;;;;9.00;4.70;;;;;;;23.17;34.42;101323.95;108013;1288;21987;-70
2023/09/10 06:11:57;;;;;;;9.90;5.10;;;;;;;23.41;34.27;101326.35;108040;1283;21991;-59
2023/09/10 06:14:22;;;;;;;10.70;6.00;;;;;;;23.64;34.32;101327.34;107986;1288;21988;-59
2023/09/10 06:16:49;;;;;;;11.80;6.00;;;;;;;23.87;34.05;101328.65;108027;1287;22003;-71
2023/09/10 06:19:14;;;;;;;12.30;5.70;;;;;;;24.11;34.03;101334.20;108003;1288;21989;-59
2023/09/10 06:21:41;;;;;;;11.40;6.00;;;;;;;24.35;33.77;101330.39;108146;1288;22007;-58
2023/09/10 06:24:06;;;;;;;8.60;5.50;;;;;;;24.58;33.49;101326.82;108044;1288;22106;-72
2023/09/10 06:26:32;;;;;;;9.30;6.40;;;;;;;24.80;33.39;101330.45;108013;1288;21992;-59
2023/09/10 06:28:59;;;;;;;14.90;6.80;;;;;;;25.02;33.25;101332.43;108073;1288;21992;-59
2023/09/10 06:31:25;;;;;;;9.40;6.80;;;;;;;25.23;33.14;101330.64;107968;1288;22004;-59
2023/09/10 06:33:50;;;;;;;11.60;7.70;;;;;;;25.46;33.01;101330.06;108083;1284;21998;-71
2023/09/10 06:36:16;;;;;;;12.90;7.50;;;;;;;25.68;32.83;101333.75;107985;1288;22000;-58
2023/09/10 06:38:47;;;;;;;11.50;7.70;;;;;;;25.89;32.55;101335.73;108019;1284;22035;-71
2023/09/10 06:41:16;;;;;;;13.00;7.10;;;;;;;26.10;32.41;101334.75;107872;1288;21993;-70
2023/09/10 06:43:43;;;;;;;15.10;7.10;;;;;;;26.31;32.14;101334.20;107870;1289;23726;-71
2023/09/10 06:46:09;;;;;;;14.10;7.70;;;;;;;26.52;32.05;101333.06;107858;1280;21992;-71
2023/09/10 06:48:34;;;;;;;11.50;7.50;;;;;;;26.72;31.82;101332.80;108222;1289;22004;-70
2023/09/10 06:51:03;;;;;;;10.90;6.10;;;;;;;26.92;31.70;101333.58;107874;1289;21998;-71
2023/09/10 06:53:29;;;;;;;10.50;6.50;;;;;;;27.11;31.47;101331.40;107853;1289;22766;-60
2023/09/10 06:55:56;;;;;;;9.40;5.20;;;;;;;27.31;31.10;101334.00;107835;1289;21996;-59
2023/09/10 06:58:21;;;;;;;8.00;4.40;;;;;;;27.51;30.93;101335.75;107839;1286;21992;-59
2023/09/10 07:00:47;;;;;;;7.10;3.30;;;;;;;27.71;30.55;101337.42;107929;1286;21992;-69
2023/09/10 07:03:13;;;;;;;7.00;2.50;;;;;;;27.89;29.99;101333.83;107978;1288;22005;-58
2023/09/10 07:05:42;;;;;;;9.00;2.40;;;;;;;28.01;29.66;101331.69;108049;1288;21990;-59
2023/09/10 07:08:08;;;;;;;8.40;3.70;;;;;;;28.15;29.38;101333.27;108024;1288;22026;-59
2023/09/10 07:10:35;;;;;;;8.20;3.70;;;;;;;28.26;29.41;101330.20;108063;1284;22460;-56
2023/09/10 07:13:05;;;;;;;7.30;3.90;;;;;;;28.42;29.47;101327.39;108054;1288;21992;-66
2023/09/10 07:15:31;;;;;;;;;;;;;;;28.61;29.18;101330.18;108059;1284;21980;-57
2023/09/10 07:17:56;;;;;;;4.10;2.50;;;;;;;28.76;28.87;101328.16;108014;1287;22550;-67
2023/09/10 07:20:22;;;;;;;5.40;2.50;;;;;;;28.92;28.77;101328.94;108008;1288;21999;-57
2023/09/10 07:22:48;;;;;;;6.70;2.90;;;;;;;29.13;28.60;101329.20;108019;1288;21995;-57
2023/09/10 07:25:13;;;;;;;6.10;3.30;;;;;;;29.32;28.47;101328.52;108044;1288;22014;-68
2023/09/10 07:27:39;;;;;;;9.20;4.20;;;;;;;29.52;28.50;101326.84;108003;1287;22016;-58
2023/09/10 07:30:05;;;;;;;7.10;3.80;;;;;;;29.69;28.34;101325.45;107981;1288;22066;-69
2023/09/10 07:32:31;;;;;;;6.30;3.50;;;;;;;29.83;28.27;101327.46;108062;1288;22027;-59
2023/09/10 07:34:56;;;;;;;6.30;3.90;;;;;;;30.00;28.07;101324.73;108035;1287;21996;-70
2023/09/10 07:37:22;;;;;;;10.80;4.20;;;;;;;30.16;27.73;101325.11;108000;1288;22253;-70
2023/09/10 07:39:48;;;;;;;8.10;3.60;;;;;;;30.20;27.59;101324.59;108033;1288;21992;-57
2023/09/10 07:42:13;;;;;;;5.40;2.80;;;;;;;30.27;27.50;101326.75;108045;1288;21987;-70
2023/09/10 07:44:40;;;;;;;6.60;2.60;;;;;;;30.40;27.17;101322.94;107984;1288;22053;-58
2023/09/10 07:47:06;;;;;;;5.40;2.90;;;;;;;30.59;26.90;101322.92;108013;1288;21990;-58
2023/09/10 07:49:31;;;;;;;4.10;2.50;;;;;;;30.63;26.55;101323.52;108008;1288;22460;-58
2023/09/10 07:51:57;;;;;;;6.20;2.90;;;;;;;30.67;26.79;101323.16;107996;1287;22005;-58
2023/09/10 07:54:23;;;;;;;5.00;2.50;;;;;;;30.83;26.76;101324.02;108035;1288;22000;-69
2023/09/10 07:56:49;;;;;;;3.60;2.00;;;;;;;31.00;26.71;101318.03;107990;1285;21992;-58
2023/09/10 07:59:15;;;;;;;6.00;2.10;;;;;;;31.19;26.39;101314.11;107997;1288;21999;-59
2023/09/10 08:01:40;;;;;;;3.30;1.60;;;;;;;31.39;26.19;101313.15;107996;1284;21992;-60
2023/09/10 08:04:06;;;;;;;3.80;1.60;;;;;;;31.56;25.94;101311.71;108006;1288;21984;-68
2023/09/10 08:06:32;;;;;;;4.30;1.90;;;;;;;31.69;25.75;101314.56;108060;1288;21999;-68
2023/09/10 08:08:58;;;;;;;10.00;2.00;;;;;;;31.83;25.50;101316.46;108048;1288;22024;-59
2023/09/10 08:11:23;;;;;;;14.20;5.20;;;;;;;31.91;25.45;101320.26;108008;1288;22044;-69
2023/09/10 08:13:50;;;;;;;11.00;4.90;;;;;;;31.94;25.30;101316.79;107992;1283;21990;-69
2023/09/10 08:16:17;;;;;;;9.80;3.30;;;;;;;31.95;25.21;101313.09;108031;1288;22003;-59
2023/09/10 08:18:42;;;;;;;5.50;2.10;;;;;;;32.00;25.00;101308.77;108019;1286;22059;-59
2023/09/10 08:21:08;;;;;;;10.40;1.60;;;;;;;31.88;24.65;101312.36;107974;1288;21990;-60
2023/09/10 08:23:33;;;;;;;6.90;1.70;;;;;;;31.86;24.76;101312.38;107978;1283;22001;-59
2023/09/10 08:25:59;;;;;;;19.20;2.50;;;;;;;32.01;24.71;101314.68;108020;1288;21992;-62
2023/09/10 08:28:25;;;;;;;14.90;2.60;;;;;;;32.18;24.59;101312.14;108029;1288;22011;-59
2023/09/10 08:30:51;;;;;;;10.60;1.90;;;;;;;32.33;24.37;101308.02;108073;1288;21993;-59
2023/09/10 08:33:17;;;;;;;9.40;1.70;;;;;;;32.50;24.36;101302.88;107949;1287;21992;-69
2023/09/10 08:35:47;;;;;;;2.80;1.40;;;;;;;32.65;24.25;101302.84;107944;1288;21997;-69
2023/09/10 08:38:13;;;;;;;4.50;1.30;;;;;;;32.78;23.92;101303.99;108206;1288;21992;-69
2023/09/10 08:40:56;;;;;;;4.50;1.60;;;;;;;32.88;23.77;101308.51;108076;1288;22008;-59
2023/09/10 08:43:29;;;;;;;3.30;1.00;;;;;;;32.97;23.36;101305.70;108025;1287;21994;-59
2023/09/10 08:45:55;;;;;;;4.90;1.10;;;;;;;32.98;23.38;101304.89;107993;1288;22042;-68
2023/09/10 08:48:20;;;;;;;4.00;1.20;;;;;;;33.09;23.44;101303.17;108018;1288;21982;-69
2023/09/10 08:50:46;;;;;;;3.80;0.70;;;;;;;33.24;23.34;101303.02;107813;1288;22010;-69
2023/09/10 08:53:13;;;;;;;2.40;0.90;;;;;;;33.38;23.00;101302.80;107986;1288;21997;-60
2023/09/10 08:55:42;;;;;;;1.30;0.50;;;;;;;33.41;22.78;101305.14;107774;1288;22022;-69
2023/09/10 08:58:10;;;;;;;2.50;0.80;;;;;;;33.43;22.84;101301.60;107991;1286;21998;-60
2023/09/10 09:00:36;;;;;;;1.80;1.20;;;;;;;33.59;22.86;101296.68;107877;1288;21997;-60
2023/09/10 09:03:02;;;;;;;0.90;0.60;;;;;;;33.75;22.63;101294.20;108062;1283;23756;-70
2023/09/10 09:05:27;;;;;;;7.10;0.90;;;;;;;33.85;22.26;101293.28;107991;1288;21990;-60
2023/09/10 09:07:57;;;;;;;6.60;0.80;;;;;;;33.79;22.21;101290.10;107837;1288;22015;-60
2023/09/10 09:10:27;;;;;;;8.20;1.30;;;;;;;33.84;22.37;101288.94;107985;1288;21972;-60
2023/09/10 09:12:57;;;;;;;3.80;0.80;;;;;;;33.94;22.24;101289.89;107993;1288;21991;-69
2023/09/10 09:15:23;;;;;;;1.20;0.80;;;;;;;34.01;22.08;101287.52;108021;1288;23648;-69
2023/09/10 09:17:50;;;;;;;6.30;0.90;;;;;;;34.13;21.82;101284.01;108054;1288;21983;-60
2023/09/10 09:20:19;;;;;;;1.80;0.90;;;;;;;34.08;21.19;101280.84;107830;1281;22000;-60
2023/09/10 09:22:50;;;;;;;2.30;1.00;;;;;;;33.77;21.36;101282.58;108047;1288;22008;-68
2023/09/10 09:25:16;;;;;;;0.90;0.70;;;;;;;33.66;21.63;101280.34;108026;1286;23464;-61
2023/09/10 09:27:42;;;;;;;1.70;0.80;;;;;;;33.81;21.78;101279.42;108003;1288;21999;-68
2023/09/10 09:30:08;;;;;;;2.30;0.80;;;;;;;34.03;21.86;101272.39;107841;1288;21997;-69
2023/09/10 09:32:35;;;;;;;2.20;0.80;;;;;;;34.22;21.72;101273.61;108052;1288;22574;-60
2023/09/10 09:35:01;;;;;;;3.20;0.90;;;;;;;34.43;21.58;101270.23;108072;1283;22468;-69
2023/09/10 09:37:31;;;;;;;2.70;0.70;;;;;;;34.58;21.01;101265.92;108002;1288;22013;-68
2023/09/10 09:39:57;;;;;;;2.90;0.70;;;;;;;34.67;20.83;101267.71;108039;1288;22097;-68
2023/09/10 09:42:23;;;;;;;3.40;0.90;;;;;;;34.83;21.20;101265.23;108040;1288;22014;-69
2023/09/10 09:44:48;;;;;;;6.30;0.90;;;;;;;35.02;21.29;101263.27;108015;1287;23159;-60
2023/09/10 09:47:14;;;;;;;8.30;1.00;;;;;;;35.16;20.98;101262.63;107991;1288;21999;-69
2023/09/10 09:49:44;;;;;;;6.80;1.00;;;;;;;35.24;20.88;101263.23;108205;1288;22013;-59
2023/09/10 09:52:11;;;;;;;7.70;1.10;;;;;;;35.40;20.74;101266.38;108043;1288;21984;-68
2023/09/10 09:54:38;;;;;;;1.00;0.60;;;;;;;35.53;20.60;101261.20;108069;1284;22000;-69
2023/09/10 09:57:04;;;;;;;1.50;0.60;;;;;;;35.42;20.23;101256.67;107952;1286;22000;-60
2023/09/10 09:59:34;;;;;;;4.60;1.00;;;;;;;35.32;20.65;101260.58;107991;1284;22000;-68
2023/09/10 10:02:00;;;;;;;2.50;0.80;;;;;;;35.52;20.83;101258.91;108021;1288;22160;-60
2023/09/10 10:04:25;;;;;;;2.90;0.60;;;;;;;35.52;19.95;101253.92;107828;1286;22002;-68
2023/09/10 10:06:51;;;;;;;3.20;0.90;;;;;;;35.40;20.32;101252.24;108014;1286;21993;-67
2023/09/10 10:09:19;;;;;;;2.20;0.80;;;;;;;35.49;20.28;101250.79;108022;1283;21993;-59
2023/09/10 10:11:44;;;;;;;2.10;0.90;;;;;;;35.75;20.43;101243.67;108000;1288;21996;-57
2023/09/10 10:14:10;;;;;;;5.70;1.30;;;;;;;36.05;20.35;101239.30;108013;1280;21993;-59
2023/09/10 10:16:37;;;;;;;5.90;1.10;;;;;;;36.28;19.94;101240.27;107675;1289;21996;-57
2023/09/10 10:19:03;;;;;;;5.60;0.90;;;;;;;36.42;20.04;101236.34;107735;1287;22033;-66
2023/09/10 10:21:28;;;;;;;4.20;0.80;;;;;;;36.45;19.76;101231.14;108023;1288;22070;-59
2023/09/10 10:23:56;;;;;;;4.20;0.70;;;;;;;36.34;19.63;101229.40;107855;1288;21993;-58
2023/09/10 10:26:22;;;;;;;3.30;0.70;;;;;;;36.35;19.88;101229.06;108006;1288;21996;-66
2023/09/10 10:28:49;;;;;;;2.80;1.00;;;;;;;36.53;19.83;101226.57;108000;1285;23633;-66
2023/09/10 10:31:15;;;;;;;4.00;0.80;;;;;;;36.75;19.21;101221.48;108037;1284;21981;-67
2023/09/10 10:33:55;;;;;;;7.00;1.30;;;;;;;36.74;19.41;101219.86;107983;1287;21996;-59
2023/09/10 10:36:36;;;;;;;7.00;1.10;;;;;;;36.70;19.39;101222.71;107789;1288;21997;-67
2023/09/10 10:39:09;;;;;;;2.60;0.70;;;;;;;36.76;19.11;101219.90;107839;1288;22002;-59
2023/09/10 10:41:38;;;;;;;1.70;0.70;;;;;;;36.81;18.85;101219.91;108052;1283;21994;-67
2023/09/10 10:44:21;;;;;;;4.00;0.60;;;;;;;36.66;18.81;101221.66;108081;1288;22073;-60
2023/09/10 10:46:50;;;;;;;1.10;0.60;;;;;;;36.70;19.36;101215.40;108049;1288;21994;-67
2023/09/10 10:49:16;;;;;;;2.70;0.70;;;;;;;36.92;19.30;101210.37;108121;1286;21993;-58
2023/09/10 10:51:45;;;;;;;1.60;0.60;;;;;;;37.16;19.15;101208.09;107959;1282;22007;-67
2023/09/10 10:54:12;;;;;;;2.30;0.70;;;;;;;37.40;19.10;101209.21;107968;1288;21998;-59
2023/09/10 10:56:37;;;;;;;3.20;0.80;;;;;;;37.54;18.87;101206.23;108029;1283;22015;-66
2023/09/10 10:59:03;;;;;;;1.80;0.80;;;;;;;37.38;18.45;101202.13;107946;1286;21996;-67
2023/09/10 11:01:29;;;;;;;1.70;0.70;;;;;;;37.17;18.87;101195.23;107765;1288;21999;-60
2023/09/10 11:03:54;;;;;;;4.90;0.90;;;;;;;37.22;18.27;101193.36;108057;1285;22027;-61
2023/09/10 11:06:20;;;;;;;2.10;0.60;;;;;;;36.99;18.11;101188.43;107804;1288;21990;-59
2023/09/10 11:08:48;;;;;;;4.60;0.70;;;;;;;36.83;18.43;101186.55;108040;1286;22003;-67
2023/09/10 11:11:32;;;;;;;5.70;1.00;;;;;;;36.92;18.15;101186.32;107832;1288;22018;-68
2023/09/10 11:14:02;;;;;;;6.00;0.80;;;;;;;36.76;17.98;101181.83;108025;1288;22045;-68